EWG4QK EDDL-LFKB
Flight info
| Callsign | EWG4QK |
|---|---|
| Flight time | 1h 40m |
| Altitude | 37000 |
| Route | DODEN1T DODEN Y852 NATOR DCT TRA DCT RIPUS DCT GERSA DCT SOSON DCT ODINA DCT OLETI/N0380F190 M858 LIGUR |
| Aircraft | A319/M-SDE3FGHIRWY/LB1 |
Departure
| Time | 2026-04-15 10:07 |
|---|---|
| Airport | Düsseldorf Airport (EDDL) |
Arrival
| Time | 2026-04-15 11:47 |
|---|---|
| Airport | Bastia-Poretta International airport (LFKB) |
| Time | Latitude | Longitude | Altitude | Speed | Heading |
|---|---|---|---|---|---|
| 2026-04-15 09:24 | 51.28105 | 6.76722 | 118 ft | 0 kts | 276° |
| 2026-04-15 09:33 | 51.28105 | 6.76723 | 118 ft | 0 kts | 276° |
| 2026-04-15 09:53 | 51.28105 | 6.76736 | 115 ft | 2 kts | 277° |
| 2026-04-15 09:53 | 51.28103 | 6.76757 | 117 ft | 2 kts | 278° |
| 2026-04-15 09:53 | 51.28101 | 6.76777 | 115 ft | 2 kts | 271° |
| 2026-04-15 09:54 | 51.28101 | 6.76795 | 115 ft | 2 kts | 255° |
| 2026-04-15 09:54 | 51.28104 | 6.76811 | 114 ft | 1 kts | 236° |
| 2026-04-15 09:54 | 51.28108 | 6.76821 | 114 ft | 1 kts | 210° |
| 2026-04-15 09:54 | 51.28115 | 6.76826 | 115 ft | 2 kts | 192° |
| 2026-04-15 09:55 | 51.28127 | 6.76829 | 117 ft | 2 kts | 184° |
| 2026-04-15 09:55 | 51.28141 | 6.76831 | 116 ft | 2 kts | 184° |
| 2026-04-15 09:55 | 51.28154 | 6.76832 | 119 ft | 2 kts | 185° |
| 2026-04-15 09:55 | 51.28167 | 6.76835 | 117 ft | 2 kts | 188° |
| 2026-04-15 09:56 | 51.28181 | 6.76838 | 117 ft | 2 kts | 186° |
| 2026-04-15 09:56 | 51.28194 | 6.76840 | 119 ft | 2 kts | 186° |
| 2026-04-15 09:56 | 51.28212 | 6.76846 | 114 ft | 1 kts | 132° |
| 2026-04-15 09:57 | 51.28218 | 6.76836 | 115 ft | 1 kts | 134° |
| 2026-04-15 09:57 | 51.28225 | 6.76823 | 116 ft | 1 kts | 118° |
| 2026-04-15 09:57 | 51.28228 | 6.76814 | 118 ft | 1 kts | 92° |
| 2026-04-15 09:57 | 51.28229 | 6.76804 | 116 ft | 1 kts | 35° |
| 2026-04-15 09:58 | 51.28222 | 6.76798 | 117 ft | 1 kts | 6° |
| 2026-04-15 09:58 | 51.28212 | 6.76798 | 115 ft | 2 kts | 352° |
| 2026-04-15 09:58 | 51.28202 | 6.76799 | 117 ft | 1 kts | 325° |
| 2026-04-15 09:58 | 51.28196 | 6.76806 | 118 ft | 2 kts | 297° |
| 2026-04-15 09:59 | 51.28193 | 6.76821 | 113 ft | 1 kts | 303° |
| 2026-04-15 09:59 | 51.28190 | 6.76829 | 113 ft | 1 kts | 325° |
| 2026-04-15 09:59 | 51.28186 | 6.76835 | 116 ft | 1 kts | 351° |
| 2026-04-15 09:59 | 51.28180 | 6.76836 | 117 ft | 1 kts | 0° |
| 2026-04-15 10:00 | 51.28176 | 6.76837 | 117 ft | 0 kts | 7° |
| 2026-04-15 10:00 | 51.28190 | 6.76839 | 118 ft | 4 kts | 7° |
| 2026-04-15 10:00 | 51.28223 | 6.76846 | 118 ft | 0 kts | 6° |
| 2026-04-15 10:01 | 51.28227 | 6.76846 | 118 ft | 3 kts | 5° |
| 2026-04-15 10:01 | 51.28244 | 6.76849 | 116 ft | 4 kts | 6° |
| 2026-04-15 10:01 | 51.28286 | 6.76857 | 118 ft | 8 kts | 6° |
| 2026-04-15 10:02 | 51.28343 | 6.76867 | 118 ft | 7 kts | 7° |
| 2026-04-15 10:02 | 51.28396 | 6.76840 | 115 ft | 9 kts | 323° |
| 2026-04-15 10:02 | 51.28444 | 6.76782 | 118 ft | 8 kts | 327° |
| 2026-04-15 10:02 | 51.28500 | 6.76798 | 116 ft | 10 kts | 45° |
| 2026-04-15 10:03 | 51.28546 | 6.76894 | 116 ft | 12 kts | 52° |
| 2026-04-15 10:03 | 51.28602 | 6.77011 | 115 ft | 14 kts | 52° |
| 2026-04-15 10:03 | 51.28668 | 6.77150 | 118 ft | 17 kts | 53° |
| 2026-04-15 10:03 | 51.28745 | 6.77310 | 118 ft | 19 kts | 52° |
| 2026-04-15 10:04 | 51.28831 | 6.77491 | 118 ft | 22 kts | 52° |
| 2026-04-15 10:04 | 51.28911 | 6.77660 | 118 ft | 18 kts | 52° |
| 2026-04-15 10:04 | 51.28987 | 6.77819 | 118 ft | 19 kts | 53° |
| 2026-04-15 10:04 | 51.29067 | 6.77987 | 116 ft | 20 kts | 53° |
| 2026-04-15 10:05 | 51.29134 | 6.78127 | 116 ft | 15 kts | 53° |
| 2026-04-15 10:05 | 51.29190 | 6.78209 | 117 ft | 10 kts | 21° |
| 2026-04-15 10:05 | 51.29250 | 6.78200 | 117 ft | 9 kts | 332° |
| 2026-04-15 10:05 | 51.29301 | 6.78139 | 119 ft | 10 kts | 322° |
| 2026-04-15 10:06 | 51.29336 | 6.78086 | 117 ft | 4 kts | 287° |
| 2026-04-15 10:06 | 51.29317 | 6.78042 | 118 ft | 10 kts | 231° |
| 2026-04-15 10:06 | 51.29157 | 6.77708 | 116 ft | 72 kts | 233° |
| 2026-04-15 10:06 | 51.28723 | 6.76796 | 119 ft | 132 kts | 232° |
| 2026-04-15 10:07 | 51.28109 | 6.75502 | 489 ft | 148 kts | 232° |
| 2026-04-15 10:07 | 51.27501 | 6.74195 | 1223 ft | 145 kts | 230° |
| 2026-04-15 10:07 | 51.26864 | 6.72822 | 1628 ft | 165 kts | 231° |
| 2026-04-15 10:07 | 51.26136 | 6.71264 | 2002 ft | 186 kts | 231° |
| 2026-04-15 10:08 | 51.25288 | 6.69448 | 2393 ft | 215 kts | 231° |
| 2026-04-15 10:08 | 51.24356 | 6.67447 | 2950 ft | 240 kts | 232° |
| 2026-04-15 10:08 | 51.23317 | 6.65277 | 3809 ft | 252 kts | 226° |
| 2026-04-15 10:08 | 51.21836 | 6.63773 | 4810 ft | 257 kts | 195° |
| 2026-04-15 10:09 | 51.20048 | 6.63643 | 5902 ft | 260 kts | 175° |
| 2026-04-15 10:09 | 51.18233 | 6.63908 | 6976 ft | 264 kts | 174° |
| 2026-04-15 10:09 | 51.16391 | 6.64236 | 7956 ft | 269 kts | 172° |
| 2026-04-15 10:09 | 51.14655 | 6.65432 | 8865 ft | 280 kts | 143° |
| 2026-04-15 10:10 | 51.13438 | 6.67889 | 9711 ft | 291 kts | 115° |
| 2026-04-15 10:10 | 51.13077 | 6.71045 | 10491 ft | 301 kts | 89° |
| 2026-04-15 10:10 | 51.13206 | 6.74273 | 10999 ft | 318 kts | 86° |
| 2026-04-15 10:10 | 51.13356 | 6.77916 | 11324 ft | 341 kts | 86° |
| 2026-04-15 10:11 | 51.13511 | 6.81750 | 11911 ft | 352 kts | 86° |
| 2026-04-15 10:11 | 51.13663 | 6.85662 | 12629 ft | 358 kts | 86° |
| 2026-04-15 10:11 | 51.13813 | 6.89651 | 13399 ft | 362 kts | 86° |
| 2026-04-15 10:11 | 51.13961 | 6.93678 | 14137 ft | 367 kts | 86° |
| 2026-04-15 10:12 | 51.14111 | 6.97752 | 14802 ft | 371 kts | 86° |
| 2026-04-15 10:12 | 51.14261 | 7.01873 | 15489 ft | 374 kts | 86° |
| 2026-04-15 10:12 | 51.14407 | 7.06030 | 16169 ft | 378 kts | 86° |
| 2026-04-15 10:12 | 51.14552 | 7.10226 | 16841 ft | 381 kts | 86° |
| 2026-04-15 10:13 | 51.14699 | 7.14454 | 17510 ft | 385 kts | 86° |
| 2026-04-15 10:13 | 51.14846 | 7.18736 | 18194 ft | 388 kts | 86° |
| 2026-04-15 10:13 | 51.14989 | 7.23002 | 18813 ft | 392 kts | 86° |
| 2026-04-15 10:13 | 51.15134 | 7.27351 | 19390 ft | 395 kts | 86° |
| 2026-04-15 10:14 | 51.15280 | 7.31745 | 19980 ft | 399 kts | 86° |
| 2026-04-15 10:14 | 51.15396 | 7.36178 | 20570 ft | 403 kts | 90° |
| 2026-04-15 10:14 | 51.15049 | 7.40626 | 21144 ft | 408 kts | 103° |
| 2026-04-15 10:14 | 51.14111 | 7.44898 | 21702 ft | 411 kts | 115° |
| 2026-04-15 10:15 | 51.12642 | 7.48827 | 22256 ft | 415 kts | 127° |
| 2026-04-15 10:15 | 51.10683 | 7.52286 | 22795 ft | 417 kts | 137° |
| 2026-04-15 10:15 | 51.08572 | 7.55492 | 23319 ft | 421 kts | 137° |
| 2026-04-15 10:15 | 51.06452 | 7.58727 | 23834 ft | 424 kts | 136° |
| 2026-04-15 10:16 | 51.04348 | 7.61945 | 24256 ft | 427 kts | 136° |
| 2026-04-15 10:16 | 51.02197 | 7.65233 | 24676 ft | 431 kts | 136° |
| 2026-04-15 10:16 | 51.00027 | 7.68540 | 25102 ft | 434 kts | 136° |
| 2026-04-15 10:16 | 50.97841 | 7.71850 | 25514 ft | 437 kts | 138° |
| 2026-04-15 10:17 | 50.95445 | 7.74844 | 25912 ft | 439 kts | 147° |
| 2026-04-15 10:17 | 50.92848 | 7.77417 | 26324 ft | 442 kts | 149° |
| 2026-04-15 10:17 | 50.90222 | 7.79995 | 26735 ft | 445 kts | 149° |
| 2026-04-15 10:17 | 50.87584 | 7.82585 | 27140 ft | 448 kts | 149° |
| 2026-04-15 10:18 | 50.84925 | 7.85194 | 27539 ft | 451 kts | 149° |
| 2026-04-15 10:18 | 50.82244 | 7.87827 | 27930 ft | 455 kts | 149° |
| 2026-04-15 10:18 | 50.79551 | 7.90470 | 28318 ft | 458 kts | 149° |
| 2026-04-15 10:18 | 50.76829 | 7.93136 | 28705 ft | 461 kts | 149° |
| 2026-04-15 10:19 | 50.74095 | 7.95812 | 29076 ft | 464 kts | 149° |
| 2026-04-15 10:19 | 50.71340 | 7.98506 | 29439 ft | 467 kts | 149° |
| 2026-04-15 10:19 | 50.68574 | 8.01205 | 29806 ft | 470 kts | 149° |
| 2026-04-15 10:19 | 50.65782 | 8.03925 | 30158 ft | 473 kts | 149° |
| 2026-04-15 10:20 | 50.62922 | 8.06521 | 30462 ft | 475 kts | 155° |
| 2026-04-15 10:20 | 50.59855 | 8.08479 | 30736 ft | 477 kts | 163° |
| 2026-04-15 10:20 | 50.56626 | 8.09703 | 31024 ft | 478 kts | 172° |
| 2026-04-15 10:20 | 50.53316 | 8.10237 | 31297 ft | 480 kts | 177° |
| 2026-04-15 10:21 | 50.49984 | 8.10654 | 31656 ft | 480 kts | 177° |
| 2026-04-15 10:21 | 50.46654 | 8.11082 | 32050 ft | 480 kts | 177° |
| 2026-04-15 10:21 | 50.43331 | 8.11519 | 32451 ft | 480 kts | 176° |
| 2026-04-15 10:21 | 50.40006 | 8.11961 | 32847 ft | 480 kts | 176° |
| 2026-04-15 10:22 | 50.36674 | 8.12404 | 33247 ft | 480 kts | 176° |
| 2026-04-15 10:22 | 50.33349 | 8.12845 | 33648 ft | 480 kts | 176° |
| 2026-04-15 10:22 | 50.30022 | 8.13282 | 34054 ft | 480 kts | 176° |
| 2026-04-15 10:22 | 50.26695 | 8.13715 | 34435 ft | 480 kts | 176° |
| 2026-04-15 10:23 | 50.23365 | 8.14146 | 34785 ft | 480 kts | 176° |
| 2026-04-15 10:23 | 50.20036 | 8.14576 | 35138 ft | 480 kts | 176° |
| 2026-04-15 10:23 | 50.16705 | 8.15009 | 35496 ft | 479 kts | 176° |
| 2026-04-15 10:23 | 50.13385 | 8.15441 | 35843 ft | 479 kts | 176° |
| 2026-04-15 10:24 | 50.10060 | 8.15883 | 36176 ft | 479 kts | 176° |
| 2026-04-15 10:24 | 50.06737 | 8.16343 | 36496 ft | 479 kts | 176° |
| 2026-04-15 10:24 | 50.03418 | 8.16812 | 36822 ft | 479 kts | 176° |
| 2026-04-15 10:24 | 50.00107 | 8.17282 | 37137 ft | 479 kts | 176° |
| 2026-04-15 10:25 | 49.96783 | 8.17752 | 37261 ft | 478 kts | 176° |
| 2026-04-15 10:25 | 49.90177 | 8.18677 | 37278 ft | 476 kts | 176° |
| 2026-04-15 10:26 | 49.83579 | 8.19585 | 37266 ft | 476 kts | 176° |
| 2026-04-15 10:26 | 49.76980 | 8.20488 | 37266 ft | 476 kts | 176° |
| 2026-04-15 10:27 | 49.70436 | 8.21390 | 37252 ft | 475 kts | 175° |
| 2026-04-15 10:27 | 49.63849 | 8.22302 | 37265 ft | 475 kts | 175° |
| 2026-04-15 10:28 | 49.57257 | 8.23212 | 37267 ft | 475 kts | 175° |
| 2026-04-15 10:28 | 49.50670 | 8.24101 | 37277 ft | 475 kts | 176° |
| 2026-04-15 10:29 | 49.44089 | 8.24990 | 37274 ft | 475 kts | 175° |
| 2026-04-15 10:29 | 49.37501 | 8.25889 | 37274 ft | 475 kts | 175° |
| 2026-04-15 10:30 | 49.32032 | 8.26625 | 37271 ft | 475 kts | 175° |
| 2026-04-15 10:30 | 49.25449 | 8.27522 | 37262 ft | 475 kts | 175° |
| 2026-04-15 10:31 | 49.18870 | 8.28409 | 37258 ft | 474 kts | 175° |
| 2026-04-15 10:31 | 49.12295 | 8.29293 | 37250 ft | 474 kts | 175° |
| 2026-04-15 10:32 | 49.05724 | 8.30176 | 37254 ft | 474 kts | 175° |
| 2026-04-15 10:32 | 48.99149 | 8.31044 | 37246 ft | 474 kts | 176° |
| 2026-04-15 10:33 | 48.92557 | 8.31452 | 37254 ft | 473 kts | 180° |
| 2026-04-15 10:33 | 48.85973 | 8.31386 | 37257 ft | 472 kts | 181° |
| 2026-04-15 10:34 | 48.79397 | 8.31305 | 37258 ft | 472 kts | 180° |
| 2026-04-15 10:34 | 48.72828 | 8.31355 | 37250 ft | 472 kts | 180° |
| 2026-04-15 10:35 | 48.66265 | 8.31479 | 37256 ft | 472 kts | 180° |
| 2026-04-15 10:35 | 48.59708 | 8.31584 | 37249 ft | 472 kts | 180° |
| 2026-04-15 10:36 | 48.53144 | 8.31668 | 37251 ft | 471 kts | 180° |
| 2026-04-15 10:36 | 48.46581 | 8.31752 | 37244 ft | 471 kts | 180° |
| 2026-04-15 10:37 | 48.40026 | 8.31836 | 37253 ft | 471 kts | 180° |
| 2026-04-15 10:37 | 48.33471 | 8.31919 | 37252 ft | 470 kts | 180° |
| 2026-04-15 10:38 | 48.26927 | 8.31996 | 37247 ft | 470 kts | 180° |
| 2026-04-15 10:38 | 48.20384 | 8.32089 | 37243 ft | 470 kts | 180° |
| 2026-04-15 10:39 | 48.13876 | 8.32878 | 37253 ft | 470 kts | 171° |
| 2026-04-15 10:39 | 48.07422 | 8.34454 | 37246 ft | 470 kts | 171° |
| 2026-04-15 10:40 | 48.00972 | 8.36006 | 37253 ft | 469 kts | 171° |
| 2026-04-15 10:40 | 47.94524 | 8.37562 | 37256 ft | 469 kts | 171° |
| 2026-04-15 10:41 | 47.90256 | 8.38592 | 37254 ft | 469 kts | 171° |
| 2026-04-15 10:41 | 47.86020 | 8.39608 | 37256 ft | 469 kts | 171° |
| 2026-04-15 10:42 | 47.79583 | 8.41150 | 37257 ft | 468 kts | 171° |
| 2026-04-15 10:42 | 47.73148 | 8.42689 | 37259 ft | 468 kts | 171° |
| 2026-04-15 10:43 | 47.66757 | 8.44157 | 37262 ft | 467 kts | 172° |
| 2026-04-15 10:43 | 47.60289 | 8.45181 | 37258 ft | 467 kts | 175° |
| 2026-04-15 10:44 | 47.53820 | 8.45975 | 37264 ft | 467 kts | 175° |
| 2026-04-15 10:44 | 47.47342 | 8.46842 | 37261 ft | 467 kts | 174° |
| 2026-04-15 10:45 | 47.40887 | 8.47796 | 37265 ft | 466 kts | 174° |
| 2026-04-15 10:45 | 47.34424 | 8.48773 | 37259 ft | 466 kts | 174° |
| 2026-04-15 10:46 | 47.27975 | 8.49726 | 37262 ft | 466 kts | 174° |
| 2026-04-15 10:46 | 47.21519 | 8.50669 | 37255 ft | 465 kts | 174° |
| 2026-04-15 10:47 | 47.15070 | 8.51599 | 37260 ft | 465 kts | 174° |
| 2026-04-15 10:47 | 47.08626 | 8.52527 | 37254 ft | 465 kts | 174° |
| 2026-04-15 10:48 | 47.02188 | 8.53467 | 37267 ft | 465 kts | 174° |
| 2026-04-15 10:48 | 46.95755 | 8.54403 | 37263 ft | 465 kts | 174° |
| 2026-04-15 10:49 | 46.89326 | 8.55321 | 37256 ft | 464 kts | 174° |
| 2026-04-15 10:49 | 46.82899 | 8.56245 | 37250 ft | 464 kts | 174° |
| 2026-04-15 10:50 | 46.76479 | 8.57170 | 37232 ft | 463 kts | 174° |
| 2026-04-15 10:50 | 46.70063 | 8.58082 | 37213 ft | 463 kts | 174° |
| 2026-04-15 10:51 | 46.63645 | 8.58992 | 37187 ft | 462 kts | 174° |
| 2026-04-15 10:51 | 46.57273 | 8.59903 | 37188 ft | 462 kts | 174° |
| 2026-04-15 10:52 | 46.50868 | 8.60811 | 37183 ft | 462 kts | 174° |
| 2026-04-15 10:52 | 46.44466 | 8.61713 | 37188 ft | 462 kts | 174° |
| 2026-04-15 10:53 | 46.38078 | 8.62623 | 37181 ft | 461 kts | 174° |
| 2026-04-15 10:53 | 46.31695 | 8.63516 | 37177 ft | 461 kts | 174° |
| 2026-04-15 10:54 | 46.25304 | 8.64413 | 37175 ft | 461 kts | 174° |
| 2026-04-15 10:54 | 46.18925 | 8.65302 | 37182 ft | 461 kts | 174° |
| 2026-04-15 10:55 | 46.12547 | 8.66195 | 37176 ft | 461 kts | 174° |
| 2026-04-15 10:55 | 46.06168 | 8.67118 | 37186 ft | 460 kts | 173° |
| 2026-04-15 10:56 | 45.99795 | 8.68123 | 37182 ft | 460 kts | 173° |
| 2026-04-15 10:56 | 45.93432 | 8.69137 | 37183 ft | 460 kts | 173° |
| 2026-04-15 10:57 | 45.87070 | 8.70125 | 37184 ft | 460 kts | 173° |
| 2026-04-15 10:57 | 45.77529 | 8.71585 | 37190 ft | 459 kts | 173° |
| 2026-04-15 10:58 | 45.71175 | 8.72575 | 37182 ft | 459 kts | 173° |
| 2026-04-15 10:58 | 45.64827 | 8.73556 | 37187 ft | 459 kts | 173° |
| 2026-04-15 10:59 | 45.58484 | 8.74523 | 37185 ft | 459 kts | 173° |
| 2026-04-15 10:59 | 45.52132 | 8.75489 | 37219 ft | 459 kts | 173° |
| 2026-04-15 11:00 | 45.45787 | 8.76458 | 37216 ft | 458 kts | 173° |
| 2026-04-15 11:00 | 45.39447 | 8.77435 | 37229 ft | 460 kts | 173° |
| 2026-04-15 11:01 | 45.33108 | 8.78399 | 37186 ft | 457 kts | 174° |
| 2026-04-15 11:01 | 45.26790 | 8.79340 | 37186 ft | 456 kts | 174° |
| 2026-04-15 11:02 | 45.20473 | 8.80297 | 37190 ft | 456 kts | 173° |
| 2026-04-15 11:02 | 45.14159 | 8.81261 | 37191 ft | 457 kts | 173° |
| 2026-04-15 11:03 | 45.07837 | 8.82206 | 37193 ft | 457 kts | 174° |
| 2026-04-15 11:03 | 45.01555 | 8.83143 | 37184 ft | 457 kts | 173° |
| 2026-04-15 11:04 | 44.95228 | 8.84100 | 37180 ft | 457 kts | 173° |
| 2026-04-15 11:04 | 44.88892 | 8.85052 | 37163 ft | 458 kts | 173° |
| 2026-04-15 11:05 | 44.82543 | 8.85996 | 37158 ft | 459 kts | 173° |
| 2026-04-15 11:05 | 44.76189 | 8.86929 | 37138 ft | 460 kts | 173° |
| 2026-04-15 11:06 | 44.69810 | 8.87874 | 37111 ft | 461 kts | 173° |
| 2026-04-15 11:06 | 44.63432 | 8.88821 | 37092 ft | 461 kts | 173° |
| 2026-04-15 11:07 | 44.60238 | 8.89293 | 36955 ft | 460 kts | 173° |
| 2026-04-15 11:07 | 44.57053 | 8.89764 | 36434 ft | 460 kts | 173° |
| 2026-04-15 11:07 | 44.53876 | 8.90234 | 36160 ft | 461 kts | 173° |
| 2026-04-15 11:07 | 44.50679 | 8.90707 | 35809 ft | 461 kts | 173° |
| 2026-04-15 11:08 | 44.47491 | 8.91179 | 35217 ft | 462 kts | 173° |
| 2026-04-15 11:08 | 44.44294 | 8.91652 | 34608 ft | 462 kts | 173° |
| 2026-04-15 11:08 | 44.41093 | 8.92125 | 33988 ft | 462 kts | 173° |
| 2026-04-15 11:08 | 44.37900 | 8.92593 | 33243 ft | 462 kts | 173° |
| 2026-04-15 11:09 | 44.34769 | 8.93050 | 32498 ft | 462 kts | 173° |
| 2026-04-15 11:09 | 44.31515 | 8.93525 | 31911 ft | 458 kts | 173° |
| 2026-04-15 11:09 | 44.28336 | 8.93987 | 30868 ft | 464 kts | 173° |
| 2026-04-15 11:09 | 44.25133 | 8.94454 | 29644 ft | 472 kts | 173° |
| 2026-04-15 11:10 | 44.21858 | 8.94934 | 28648 ft | 472 kts | 173° |
| 2026-04-15 11:10 | 44.18614 | 8.95409 | 28153 ft | 462 kts | 173° |
| 2026-04-15 11:10 | 44.15476 | 8.95869 | 28009 ft | 445 kts | 173° |
| 2026-04-15 11:10 | 44.12448 | 8.96310 | 27758 ft | 432 kts | 173° |
| 2026-04-15 11:11 | 44.10432 | 8.96603 | 27316 ft | 431 kts | 173° |
| 2026-04-15 11:11 | 44.07463 | 8.97035 | 26758 ft | 426 kts | 173° |
| 2026-04-15 11:11 | 44.04568 | 8.97457 | 26214 ft | 422 kts | 173° |
| 2026-04-15 11:11 | 44.01627 | 8.97883 | 25663 ft | 417 kts | 173° |
| 2026-04-15 11:12 | 43.98795 | 8.98291 | 25165 ft | 413 kts | 173° |
| 2026-04-15 11:12 | 43.95951 | 8.98700 | 24649 ft | 409 kts | 174° |
| 2026-04-15 11:12 | 43.93094 | 8.99111 | 24154 ft | 405 kts | 174° |
| 2026-04-15 11:12 | 43.90305 | 8.99514 | 23687 ft | 401 kts | 174° |
| 2026-04-15 11:13 | 43.87579 | 8.99911 | 23181 ft | 397 kts | 174° |
| 2026-04-15 11:13 | 43.84846 | 9.00307 | 22734 ft | 392 kts | 173° |
| 2026-04-15 11:13 | 43.82148 | 9.00691 | 22290 ft | 387 kts | 174° |
| 2026-04-15 11:13 | 43.79473 | 9.00694 | 21843 ft | 382 kts | 184° |
| 2026-04-15 11:14 | 43.76838 | 9.00374 | 21388 ft | 378 kts | 184° |
| 2026-04-15 11:14 | 43.74234 | 9.00059 | 20941 ft | 373 kts | 184° |
| 2026-04-15 11:14 | 43.71627 | 8.99751 | 20472 ft | 370 kts | 184° |
| 2026-04-15 11:14 | 43.69074 | 8.99456 | 20013 ft | 366 kts | 184° |
| 2026-04-15 11:15 | 43.66580 | 8.99169 | 19543 ft | 363 kts | 184° |
| 2026-04-15 11:15 | 43.64037 | 8.98876 | 19067 ft | 361 kts | 184° |
| 2026-04-15 11:15 | 43.61545 | 8.98587 | 18587 ft | 359 kts | 183° |
| 2026-04-15 11:15 | 43.59093 | 8.98299 | 18085 ft | 357 kts | 183° |
| 2026-04-15 11:16 | 43.56624 | 8.98010 | 17592 ft | 354 kts | 183° |
| 2026-04-15 11:16 | 43.54177 | 8.97726 | 17116 ft | 351 kts | 183° |
| 2026-04-15 11:16 | 43.51759 | 8.97439 | 16647 ft | 348 kts | 183° |
| 2026-04-15 11:16 | 43.49354 | 8.97145 | 16174 ft | 346 kts | 183° |
| 2026-04-15 11:17 | 43.46967 | 8.96845 | 15702 ft | 343 kts | 183° |
| 2026-04-15 11:17 | 43.44594 | 8.96550 | 15232 ft | 341 kts | 183° |
| 2026-04-15 11:17 | 43.42207 | 8.96534 | 14537 ft | 343 kts | 168° |
| 2026-04-15 11:17 | 43.39943 | 8.97518 | 14290 ft | 343 kts | 154° |
| 2026-04-15 11:18 | 43.37751 | 8.98823 | 14046 ft | 343 kts | 154° |
| 2026-04-15 11:18 | 43.35572 | 9.00148 | 13810 ft | 342 kts | 154° |
| 2026-04-15 11:18 | 43.33400 | 9.01483 | 13538 ft | 341 kts | 154° |
| 2026-04-15 11:18 | 43.31240 | 9.02809 | 13262 ft | 340 kts | 154° |
| 2026-04-15 11:19 | 43.29091 | 9.04127 | 13012 ft | 338 kts | 154° |
| 2026-04-15 11:19 | 43.26945 | 9.05441 | 12749 ft | 337 kts | 154° |
| 2026-04-15 11:19 | 43.24808 | 9.06749 | 12496 ft | 336 kts | 154° |
| 2026-04-15 11:19 | 43.22676 | 9.08054 | 12226 ft | 335 kts | 154° |
| 2026-04-15 11:20 | 43.20555 | 9.09351 | 11978 ft | 334 kts | 154° |
| 2026-04-15 11:20 | 43.18441 | 9.10640 | 11728 ft | 332 kts | 154° |
| 2026-04-15 11:20 | 43.16329 | 9.11924 | 11481 ft | 331 kts | 154° |
| 2026-04-15 11:20 | 43.14225 | 9.13202 | 11228 ft | 330 kts | 154° |
| 2026-04-15 11:21 | 43.12131 | 9.14474 | 10994 ft | 329 kts | 154° |
| 2026-04-15 11:21 | 43.10041 | 9.15744 | 10768 ft | 328 kts | 154° |
| 2026-04-15 11:21 | 43.07952 | 9.17011 | 10551 ft | 328 kts | 154° |
| 2026-04-15 11:21 | 43.05875 | 9.18272 | 10334 ft | 326 kts | 154° |
| 2026-04-15 11:22 | 43.03800 | 9.19532 | 10118 ft | 326 kts | 154° |
| 2026-04-15 11:22 | 43.01741 | 9.20782 | 9896 ft | 319 kts | 154° |
| 2026-04-15 11:22 | 42.99745 | 9.21992 | 9687 ft | 308 kts | 154° |
| 2026-04-15 11:22 | 42.97824 | 9.23151 | 9546 ft | 296 kts | 154° |
| 2026-04-15 11:23 | 42.95963 | 9.24274 | 9416 ft | 290 kts | 154° |
| 2026-04-15 11:23 | 42.94122 | 9.25389 | 9227 ft | 289 kts | 154° |
| 2026-04-15 11:23 | 42.92291 | 9.26500 | 9042 ft | 288 kts | 154° |
| 2026-04-15 11:23 | 42.90461 | 9.27608 | 8857 ft | 287 kts | 154° |
| 2026-04-15 11:24 | 42.88657 | 9.28698 | 8681 ft | 286 kts | 154° |
| 2026-04-15 11:24 | 42.86839 | 9.29796 | 8499 ft | 286 kts | 154° |
| 2026-04-15 11:24 | 42.85023 | 9.30892 | 8318 ft | 285 kts | 154° |
| 2026-04-15 11:24 | 42.83213 | 9.31982 | 8142 ft | 284 kts | 154° |
| 2026-04-15 11:25 | 42.81411 | 9.33064 | 7957 ft | 283 kts | 154° |
| 2026-04-15 11:25 | 42.79609 | 9.34144 | 7787 ft | 283 kts | 154° |
| 2026-04-15 11:25 | 42.77807 | 9.35228 | 7604 ft | 283 kts | 154° |
| 2026-04-15 11:25 | 42.76005 | 9.36314 | 7434 ft | 283 kts | 153° |
| 2026-04-15 11:26 | 42.74209 | 9.37396 | 7258 ft | 281 kts | 154° |
| 2026-04-15 11:26 | 42.72424 | 9.38468 | 7082 ft | 280 kts | 154° |
| 2026-04-15 11:26 | 42.70641 | 9.39535 | 6907 ft | 280 kts | 154° |
| 2026-04-15 11:26 | 42.68883 | 9.40584 | 6762 ft | 271 kts | 154° |
| 2026-04-15 11:27 | 42.67180 | 9.41599 | 6638 ft | 263 kts | 154° |
| 2026-04-15 11:27 | 42.65524 | 9.42587 | 6519 ft | 256 kts | 154° |
| 2026-04-15 11:27 | 42.63920 | 9.43546 | 6402 ft | 249 kts | 154° |
| 2026-04-15 11:27 | 42.62345 | 9.44489 | 6145 ft | 246 kts | 153° |
| 2026-04-15 11:28 | 42.60786 | 9.45425 | 5942 ft | 244 kts | 153° |
| 2026-04-15 11:28 | 42.59231 | 9.46358 | 5631 ft | 244 kts | 153° |
| 2026-04-15 11:28 | 42.57678 | 9.47288 | 5306 ft | 244 kts | 152° |
| 2026-04-15 11:28 | 42.56195 | 9.48385 | 4989 ft | 243 kts | 146° |
| 2026-04-15 11:29 | 42.54731 | 9.49532 | 4688 ft | 242 kts | 147° |
| 2026-04-15 11:29 | 42.53273 | 9.50672 | 4388 ft | 242 kts | 147° |
| 2026-04-15 11:29 | 42.51818 | 9.51811 | 4081 ft | 241 kts | 147° |
| 2026-04-15 11:29 | 42.50361 | 9.52948 | 3785 ft | 242 kts | 147° |
| 2026-04-15 11:30 | 42.48906 | 9.54079 | 3486 ft | 241 kts | 147° |
| 2026-04-15 11:30 | 42.47454 | 9.55208 | 3211 ft | 239 kts | 147° |
| 2026-04-15 11:30 | 42.46032 | 9.56308 | 3084 ft | 231 kts | 147° |
| 2026-04-15 11:30 | 42.44661 | 9.57361 | 2955 ft | 223 kts | 147° |
| 2026-04-15 11:31 | 42.43318 | 9.58381 | 2780 ft | 224 kts | 149° |
| 2026-04-15 11:31 | 42.41841 | 9.58980 | 2586 ft | 221 kts | 174° |
| 2026-04-15 11:31 | 42.40373 | 9.58647 | 2433 ft | 212 kts | 206° |
| 2026-04-15 11:31 | 42.39290 | 9.57395 | 2255 ft | 203 kts | 243° |
| 2026-04-15 11:32 | 42.39029 | 9.55611 | 2074 ft | 192 kts | 286° |
| 2026-04-15 11:32 | 42.39731 | 9.54298 | 2022 ft | 160 kts | 339° |
| 2026-04-15 11:32 | 42.40761 | 9.54027 | 2058 ft | 149 kts | 355° |
| 2026-04-15 11:32 | 42.41807 | 9.53845 | 2023 ft | 153 kts | 348° |
| 2026-04-15 11:33 | 42.42824 | 9.53462 | 1990 ft | 150 kts | 346° |
| 2026-04-15 11:33 | 42.43836 | 9.53127 | 1965 ft | 149 kts | 351° |
| 2026-04-15 11:33 | 42.44828 | 9.52764 | 1914 ft | 148 kts | 343° |
| 2026-04-15 11:33 | 42.45815 | 9.52326 | 1759 ft | 148 kts | 346° |
| 2026-04-15 11:34 | 42.46745 | 9.51956 | 1586 ft | 129 kts | 345° |
| 2026-04-15 11:34 | 42.47561 | 9.51624 | 1410 ft | 118 kts | 343° |
| 2026-04-15 11:34 | 42.48341 | 9.51302 | 1272 ft | 117 kts | 344° |
| 2026-04-15 11:34 | 42.49121 | 9.50968 | 1132 ft | 119 kts | 342° |
| 2026-04-15 11:35 | 42.49912 | 9.50605 | 985 ft | 124 kts | 343° |
| 2026-04-15 11:35 | 42.50738 | 9.50267 | 827 ft | 123 kts | 343° |
| 2026-04-15 11:35 | 42.51563 | 9.49937 | 634 ft | 121 kts | 342° |
| 2026-04-15 11:35 | 42.52350 | 9.49598 | 522 ft | 118 kts | 342° |
| 2026-04-15 11:36 | 42.53135 | 9.49267 | 334 ft | 118 kts | 343° |
| 2026-04-15 11:36 | 42.53906 | 9.48942 | 133 ft | 116 kts | 343° |
| 2026-04-15 11:36 | 42.54654 | 9.48630 | 37 ft | 101 kts | 343° |
| 2026-04-15 11:36 | 42.55307 | 9.48354 | 122 ft | 110 kts | 343° |
| 2026-04-15 11:37 | 42.56092 | 9.48022 | 672 ft | 124 kts | 343° |
| 2026-04-15 11:37 | 42.56941 | 9.47663 | 1271 ft | 133 kts | 344° |
| 2026-04-15 11:37 | 42.57906 | 9.47243 | 1618 ft | 157 kts | 345° |
| 2026-04-15 11:37 | 42.59035 | 9.46800 | 2043 ft | 181 kts | 356° |
| 2026-04-15 11:38 | 42.60302 | 9.47236 | 2490 ft | 204 kts | 34° |
| 2026-04-15 11:38 | 42.61219 | 9.48821 | 3142 ft | 227 kts | 69° |
| 2026-04-15 11:38 | 42.61322 | 9.50978 | 4137 ft | 238 kts | 100° |
| 2026-04-15 11:38 | 42.60568 | 9.53023 | 4875 ft | 250 kts | 128° |
| 2026-04-15 11:39 | 42.59142 | 9.54382 | 5105 ft | 256 kts | 156° |
| 2026-04-15 11:39 | 42.57396 | 9.54899 | 5173 ft | 259 kts | 169° |
| 2026-04-15 11:39 | 42.55618 | 9.55268 | 5058 ft | 257 kts | 169° |
| 2026-04-15 11:39 | 42.53865 | 9.55738 | 4709 ft | 257 kts | 165° |
| 2026-04-15 11:40 | 42.52132 | 9.56310 | 4453 ft | 253 kts | 163° |
| 2026-04-15 11:40 | 42.50450 | 9.56861 | 4281 ft | 246 kts | 163° |
| 2026-04-15 11:40 | 42.48798 | 9.57401 | 3979 ft | 243 kts | 163° |
| 2026-04-15 11:40 | 42.47155 | 9.57941 | 3635 ft | 243 kts | 164° |
| 2026-04-15 11:41 | 42.45509 | 9.58488 | 3288 ft | 244 kts | 163° |
| 2026-04-15 11:41 | 42.43865 | 9.59034 | 2970 ft | 243 kts | 163° |
| 2026-04-15 11:41 | 42.42221 | 9.59579 | 2678 ft | 243 kts | 165° |
| 2026-04-15 11:41 | 42.40550 | 9.59608 | 2421 ft | 242 kts | 195° |
| 2026-04-15 11:42 | 42.39176 | 9.58478 | 2380 ft | 224 kts | 232° |
| 2026-04-15 11:42 | 42.38631 | 9.56682 | 2369 ft | 199 kts | 277° |
| 2026-04-15 11:42 | 42.39163 | 9.55114 | 2376 ft | 180 kts | 327° |
| 2026-04-15 11:42 | 42.40298 | 9.54606 | 2405 ft | 173 kts | 356° |
| 2026-04-15 11:43 | 42.41466 | 9.54194 | 2397 ft | 173 kts | 344° |
| 2026-04-15 11:43 | 42.42606 | 9.53689 | 2343 ft | 171 kts | 346° |
| 2026-04-15 11:43 | 42.43707 | 9.53218 | 2189 ft | 162 kts | 346° |
| 2026-04-15 11:43 | 42.44767 | 9.52771 | 1978 ft | 157 kts | 346° |
| 2026-04-15 11:44 | 42.45785 | 9.52346 | 1747 ft | 153 kts | 346° |
| 2026-04-15 11:44 | 42.46760 | 9.51936 | 1563 ft | 140 kts | 346° |
| 2026-04-15 11:44 | 42.47623 | 9.51573 | 1379 ft | 124 kts | 346° |
| 2026-04-15 11:44 | 42.48424 | 9.51238 | 1223 ft | 118 kts | 346° |
| 2026-04-15 11:45 | 42.49223 | 9.50903 | 1058 ft | 122 kts | 345° |
| 2026-04-15 11:45 | 42.50040 | 9.50562 | 901 ft | 123 kts | 344° |
| 2026-04-15 11:45 | 42.50846 | 9.50225 | 733 ft | 120 kts | 342° |
| 2026-04-15 11:45 | 42.51651 | 9.49888 | 602 ft | 122 kts | 343° |
| 2026-04-15 11:46 | 42.52451 | 9.49553 | 431 ft | 120 kts | 344° |
| 2026-04-15 11:46 | 42.53249 | 9.49219 | 273 ft | 119 kts | 346° |
| 2026-04-15 11:46 | 42.54036 | 9.48886 | 110 ft | 118 kts | 346° |
| 2026-04-15 11:46 | 42.54793 | 9.48569 | 36 ft | 101 kts | 346° |
| 2026-04-15 11:47 | 42.55336 | 9.48344 | 38 ft | 62 kts | 343° |
| 2026-04-15 11:47 | 42.55678 | 9.48201 | 27 ft | 42 kts | 343° |
| 2026-04-15 11:47 | 42.55903 | 9.48107 | 25 ft | 23 kts | 342° |
| 2026-04-15 11:47 | 42.55968 | 9.48044 | 23 ft | 12 kts | 285° |
| 2026-04-15 11:48 | 42.55950 | 9.47937 | 25 ft | 11 kts | 253° |
| 2026-04-15 11:48 | 42.55900 | 9.47864 | 27 ft | 12 kts | 194° |
| 2026-04-15 11:48 | 42.55817 | 9.47887 | 28 ft | 13 kts | 162° |
| 2026-04-15 11:48 | 42.55735 | 9.47922 | 30 ft | 12 kts | 163° |
| 2026-04-15 11:49 | 42.55651 | 9.47957 | 31 ft | 13 kts | 163° |
| 2026-04-15 11:49 | 42.55554 | 9.47998 | 31 ft | 16 kts | 163° |
| 2026-04-15 11:49 | 42.55448 | 9.48043 | 33 ft | 16 kts | 163° |
| 2026-04-15 11:49 | 42.55345 | 9.48086 | 34 ft | 11 kts | 162° |